NWS6107 UUEE-ZKWS
Flight info
| Callsign | NWS6107 |
|---|---|
| Flight time | N/A |
| Altitude | 37000 |
| Route | RILPO3H RILPO T753 AGBIR T783 BALOB N155 NIPRA T631 SOREB B718 SOTOM A920 KTN A91 AGINO A810 TELOK/K0861F371 A345 MANLI/K0857S1130 A345 DULEX/K0854S1190 A345 GOLOT/K0828F391 A345 GASAN W7 SOKGE B332 JENAM W3 CONAR CON12A |
| Aircraft | A332/H-SDE3GHIJ2J3J5M1RVWXY/LB2D1 |
Departure
| Time | 2026-05-01 07:49 |
|---|---|
| Airport | Sheremetyevo International Airport (UUEE) |
Arrival
| Time | N/A |
|---|---|
| Airport | Wonsan Kalma Airport (ZKWS) |
| Time | Latitude | Longitude | Altitude | Speed | Heading |
|---|---|---|---|---|---|
| 2026-05-01 07:23 | 55.97956 | 37.40937 | 643 ft | 0 kts | 76° |
| 2026-05-01 07:38 | 55.97953 | 37.40912 | 644 ft | 3 kts | 76° |
| 2026-05-01 07:38 | 55.97944 | 37.40847 | 644 ft | 3 kts | 76° |
| 2026-05-01 07:39 | 55.97939 | 37.40815 | 643 ft | 3 kts | 76° |
| 2026-05-01 07:39 | 55.97934 | 37.40782 | 650 ft | 3 kts | 76° |
| 2026-05-01 07:39 | 55.97929 | 37.40742 | 646 ft | 0 kts | 76° |
| 2026-05-01 07:42 | 55.97929 | 37.40746 | 647 ft | 2 kts | 79° |
| 2026-05-01 07:42 | 55.97920 | 37.40764 | 645 ft | 5 kts | 136° |
| 2026-05-01 07:42 | 55.97877 | 37.40795 | 646 ft | 8 kts | 161° |
| 2026-05-01 07:43 | 55.97803 | 37.40832 | 648 ft | 13 kts | 165° |
| 2026-05-01 07:43 | 55.97715 | 37.40873 | 648 ft | 13 kts | 164° |
| 2026-05-01 07:43 | 55.97599 | 37.40977 | 642 ft | 8 kts | 86° |
| 2026-05-01 07:44 | 55.97576 | 37.41149 | 651 ft | 8 kts | 162° |
| 2026-05-01 07:44 | 55.97567 | 37.41393 | 651 ft | 15 kts | 76° |
| 2026-05-01 07:45 | 55.97598 | 37.41608 | 644 ft | 22 kts | 75° |
| 2026-05-01 07:45 | 55.97645 | 37.41919 | 644 ft | 30 kts | 74° |
| 2026-05-01 07:45 | 55.97700 | 37.42288 | 646 ft | 30 kts | 75° |
| 2026-05-01 07:45 | 55.97755 | 37.42641 | 645 ft | 29 kts | 75° |
| 2026-05-01 07:46 | 55.97803 | 37.42982 | 642 ft | 28 kts | 76° |
| 2026-05-01 07:46 | 55.97852 | 37.43301 | 650 ft | 26 kts | 75° |
| 2026-05-01 07:46 | 55.97939 | 37.43881 | 648 ft | 21 kts | 75° |
| 2026-05-01 07:47 | 55.97928 | 37.44047 | 650 ft | 5 kts | 155° |
| 2026-05-01 07:47 | 55.97871 | 37.44064 | 644 ft | 11 kts | 168° |
| 2026-05-01 07:47 | 55.97800 | 37.44070 | 646 ft | 10 kts | 208° |
| 2026-05-01 07:47 | 55.97774 | 37.43975 | 647 ft | 7 kts | 255° |
| 2026-05-01 07:48 | 55.97665 | 37.43249 | 646 ft | 83 kts | 256° |
| 2026-05-01 07:48 | 55.97470 | 37.41938 | 647 ft | 135 kts | 255° |
| 2026-05-01 07:48 | 55.97182 | 37.40052 | 679 ft | 177 kts | 254° |
| 2026-05-01 07:49 | 55.96850 | 37.37932 | 1386 ft | 173 kts | 254° |
| 2026-05-01 07:49 | 55.96166 | 37.33732 | 2338 ft | 187 kts | 255° |
| 2026-05-01 07:49 | 55.95791 | 37.31417 | 2601 ft | 202 kts | 254° |
| 2026-05-01 07:50 | 55.95382 | 37.28912 | 2777 ft | 219 kts | 254° |
| 2026-05-01 07:50 | 55.94487 | 37.23340 | 3125 ft | 250 kts | 255° |
| 2026-05-01 07:50 | 55.94016 | 37.20312 | 3544 ft | 254 kts | 255° |
| 2026-05-01 07:51 | 55.93563 | 37.17260 | 4090 ft | 256 kts | 256° |
| 2026-05-01 07:51 | 55.93112 | 37.14188 | 4637 ft | 256 kts | 256° |
| 2026-05-01 07:51 | 55.92650 | 37.11106 | 5174 ft | 257 kts | 256° |
| 2026-05-01 07:52 | 55.91687 | 37.04931 | 6184 ft | 262 kts | 263° |
| 2026-05-01 07:52 | 55.91750 | 37.01710 | 6647 ft | 261 kts | 288° |
| 2026-05-01 07:52 | 55.92611 | 36.98904 | 7115 ft | 260 kts | 315° |
| 2026-05-01 07:53 | 55.95516 | 36.95020 | 8109 ft | 265 kts | 326° |
| 2026-05-01 07:53 | 55.97046 | 36.93171 | 8676 ft | 266 kts | 330° |
| 2026-05-01 07:53 | 55.98758 | 36.91978 | 9221 ft | 265 kts | 352° |
| 2026-05-01 07:53 | 56.00585 | 36.92120 | 9775 ft | 265 kts | 17° |
| 2026-05-01 07:54 | 56.03792 | 36.95397 | 10800 ft | 267 kts | 32° |
| 2026-05-01 07:55 | 56.08479 | 37.00851 | 12321 ft | 269 kts | 32° |
| 2026-05-01 07:55 | 56.11437 | 37.04961 | 13297 ft | 273 kts | 50° |
| 2026-05-01 07:56 | 56.13421 | 37.15111 | 14120 ft | 303 kts | 72° |
| 2026-05-01 07:56 | 56.14429 | 37.22486 | 14970 ft | 305 kts | 72° |
| 2026-05-01 07:57 | 56.14936 | 37.26129 | 15424 ft | 305 kts | 72° |
| 2026-05-01 07:57 | 56.16092 | 37.33457 | 16307 ft | 304 kts | 62° |
| 2026-05-01 07:58 | 56.18302 | 37.39898 | 17178 ft | 304 kts | 53° |
| 2026-05-01 07:58 | 56.20702 | 37.46145 | 18114 ft | 304 kts | 53° |
| 2026-05-01 07:59 | 56.23097 | 37.52419 | 18921 ft | 305 kts | 53° |
| 2026-05-01 07:59 | 56.25501 | 37.58719 | 19646 ft | 306 kts | 53° |
| 2026-05-01 08:00 | 56.30357 | 37.71339 | 21095 ft | 308 kts | 50° |
| 2026-05-01 08:01 | 56.34472 | 37.80275 | 22132 ft | 310 kts | 48° |
| 2026-05-01 08:01 | 56.35861 | 37.83261 | 22469 ft | 311 kts | 48° |
| 2026-05-01 08:01 | 56.37288 | 37.86200 | 22832 ft | 311 kts | 43° |
| 2026-05-01 08:02 | 56.40917 | 37.90380 | 23420 ft | 316 kts | 20° |
| 2026-05-01 08:02 | 56.43101 | 37.91189 | 23554 ft | 326 kts | 11° |
| 2026-05-01 08:03 | 56.47692 | 37.91840 | 23803 ft | 339 kts | 8° |
| 2026-05-01 08:03 | 56.50064 | 37.92135 | 23912 ft | 344 kts | 8° |
| 2026-05-01 08:03 | 56.54923 | 37.92768 | 24085 ft | 355 kts | 8° |
| 2026-05-01 08:04 | 56.59920 | 37.93441 | 24278 ft | 365 kts | 8° |
| 2026-05-01 08:04 | 56.65055 | 37.94257 | 24466 ft | 373 kts | 12° |
| 2026-05-01 08:05 | 56.69941 | 37.97269 | 24868 ft | 372 kts | 30° |
| 2026-05-01 08:05 | 56.72043 | 37.99930 | 25083 ft | 374 kts | 39° |
| 2026-05-01 08:05 | 56.73963 | 38.03143 | 25305 ft | 376 kts | 42° |
| 2026-05-01 08:06 | 56.77098 | 38.08767 | 25662 ft | 378 kts | 43° |
| 2026-05-01 08:06 | 56.81469 | 38.16651 | 26175 ft | 382 kts | 43° |
| 2026-05-01 08:07 | 56.85264 | 38.23496 | 26565 ft | 385 kts | 43° |
| 2026-05-01 08:07 | 56.89178 | 38.30249 | 26971 ft | 388 kts | 40° |
| 2026-05-01 08:08 | 56.91224 | 38.33485 | 27193 ft | 389 kts | 39° |
| 2026-05-01 08:08 | 56.95379 | 38.39893 | 27624 ft | 392 kts | 38° |
| 2026-05-01 08:09 | 56.99540 | 38.46339 | 28036 ft | 395 kts | 39° |
| 2026-05-01 08:09 | 57.01632 | 38.49611 | 28250 ft | 396 kts | 39° |
| 2026-05-01 08:09 | 57.03733 | 38.52915 | 28464 ft | 398 kts | 39° |
| 2026-05-01 08:10 | 57.07234 | 38.58445 | 28790 ft | 401 kts | 39° |
| 2026-05-01 08:10 | 57.11485 | 38.65183 | 29162 ft | 404 kts | 39° |
| 2026-05-01 08:11 | 57.16454 | 38.73085 | 29643 ft | 408 kts | 39° |
| 2026-05-01 08:11 | 57.20037 | 38.78799 | 30002 ft | 410 kts | 39° |
| 2026-05-01 08:12 | 57.24344 | 38.85688 | 30499 ft | 409 kts | 39° |
| 2026-05-01 08:12 | 57.26495 | 38.89138 | 30662 ft | 410 kts | 39° |
| 2026-05-01 08:12 | 57.30827 | 38.96098 | 30971 ft | 413 kts | 39° |
| 2026-05-01 08:13 | 57.32996 | 38.99593 | 31161 ft | 414 kts | 39° |
| 2026-05-01 08:13 | 57.35172 | 39.03105 | 31353 ft | 414 kts | 39° |
| 2026-05-01 08:13 | 57.39524 | 39.10145 | 31739 ft | 416 kts | 39° |
| 2026-05-01 08:14 | 57.41703 | 39.13678 | 31929 ft | 416 kts | 39° |
| 2026-05-01 08:14 | 57.43856 | 39.17176 | 32120 ft | 417 kts | 39° |
| 2026-05-01 08:14 | 57.46046 | 39.20737 | 32320 ft | 418 kts | 39° |
| 2026-05-01 08:14 | 57.48232 | 39.24299 | 32506 ft | 418 kts | 40° |
| 2026-05-01 08:15 | 57.50424 | 39.27870 | 32707 ft | 419 kts | 40° |
| 2026-05-01 08:15 | 57.54834 | 39.35054 | 33070 ft | 422 kts | 40° |
| 2026-05-01 08:15 | 57.57041 | 39.38657 | 33274 ft | 422 kts | 40° |
| 2026-05-01 08:16 | 57.59254 | 39.42275 | 33509 ft | 423 kts | 40° |
| 2026-05-01 08:16 | 57.61463 | 39.45893 | 33706 ft | 423 kts | 40° |
| 2026-05-01 08:16 | 57.63648 | 39.49478 | 33914 ft | 424 kts | 40° |
| 2026-05-01 08:16 | 57.65869 | 39.53128 | 34110 ft | 424 kts | 40° |
| 2026-05-01 08:17 | 57.68086 | 39.56781 | 34283 ft | 425 kts | 40° |
| 2026-05-01 08:17 | 57.70306 | 39.60443 | 34430 ft | 426 kts | 40° |
| 2026-05-01 08:17 | 57.72529 | 39.64116 | 34577 ft | 427 kts | 40° |
| 2026-05-01 08:18 | 57.76998 | 39.71520 | 34833 ft | 430 kts | 40° |
| 2026-05-01 08:18 | 57.81476 | 39.78965 | 35123 ft | 431 kts | 40° |
| 2026-05-01 08:19 | 57.85934 | 39.86402 | 35401 ft | 432 kts | 40° |
| 2026-05-01 08:19 | 57.88179 | 39.90163 | 35534 ft | 433 kts | 40° |
| 2026-05-01 08:19 | 57.90427 | 39.93952 | 35662 ft | 433 kts | 41° |
| 2026-05-01 08:19 | 57.92675 | 39.97758 | 35795 ft | 434 kts | 41° |
| 2026-05-01 08:20 | 57.94918 | 40.01564 | 35911 ft | 435 kts | 41° |
| 2026-05-01 08:20 | 57.99426 | 40.09233 | 36130 ft | 437 kts | 41° |
| 2026-05-01 08:20 | 58.01680 | 40.13077 | 36259 ft | 437 kts | 41° |
| 2026-05-01 08:21 | 58.03938 | 40.16934 | 36372 ft | 438 kts | 41° |
| 2026-05-01 08:21 | 58.06198 | 40.20798 | 36498 ft | 438 kts | 41° |
| 2026-05-01 08:21 | 58.08463 | 40.24680 | 36616 ft | 439 kts | 41° |
| 2026-05-01 08:21 | 58.10726 | 40.28564 | 36728 ft | 440 kts | 41° |
| 2026-05-01 08:22 | 58.12991 | 40.32459 | 36847 ft | 440 kts | 41° |
| 2026-05-01 08:22 | 58.15212 | 40.36451 | 36949 ft | 441 kts | 45° |
| 2026-05-01 08:22 | 58.17191 | 40.40922 | 37044 ft | 443 kts | 53° |
| 2026-05-01 08:22 | 58.18893 | 40.45742 | 37145 ft | 445 kts | 55° |
| 2026-05-01 08:23 | 58.20535 | 40.50727 | 37174 ft | 447 kts | 57° |